Latchford, Canada
Current Conditions -  °F | °C
As of 2:00 PM on Saturday 25 Oct 2014 (Local Time) from CYXR Reporting Station
Broken Clouds Broken Clouds  
Wind Chill: 52°   Ceiling: 10000
Heat Index: 52°   Visibility: NA
Dew Point: 43°   Wind: 16mph
Humidity: 71%   Direction: 260°W
Pressure: 29.38"   Gusts: 26mph
Location:  47.33°N, 79.8°W
Report Text: CYXR 251800Z AUTO 26014G23KT FEW034 SCT048 SCT075 BKN100 11/06 A2938 RMK WX MISG VIS MISG PCPN MISG SLP957 DENSITY ALT 1100FT
Loading
Personal Weather Stations






























Interactive Weather Map
Tropical Storm Tracking
New forecast layout! Learn more

10-Day Weather Forecast

Advertisements
Track Severe Weather on mobile